Time;durP1;ratioP1;P1;durP2;ratioP2;P2;SDS_P1;SDS_P2;PMS_P1;PMS_P2;Temp;Humidity;BMP_temperature;BMP_pressure;BME280_temperature;BME280_humidity;BME280_pressure;Samples;Min_cycle;Max_cycle;Signal;HPM_P1;HPM_P2
2023/08/14 00:01:53;;;;;;;13.48;12.07;;;19.50;99.90;;;;;;5072650;28;20024;-80
2023/08/14 00:04:19;;;;;;;14.95;12.05;;;19.50;99.90;;;;;;5072527;28;20146;-82
2023/08/14 00:06:45;;;;;;;12.63;11.38;;;19.50;99.90;;;;;;5071622;28;20103;-82
2023/08/14 00:09:10;;;;;;;11.73;10.57;;;19.50;99.90;;;;;;5072548;28;20024;-82
2023/08/14 00:11:36;;;;;;;12.52;10.68;;;19.50;99.90;;;;;;5072488;28;20028;-80
2023/08/14 00:14:02;;;;;;;12.95;10.23;;;19.50;99.90;;;;;;5071196;28;20048;-81
2023/08/14 00:16:27;;;;;;;12.98;11.10;;;19.50;99.90;;;;;;5070784;28;20390;-82
2023/08/14 00:18:53;;;;;;;11.80;10.55;;;19.50;99.90;;;;;;5071297;28;20020;-82
2023/08/14 00:21:19;;;;;;;12.57;11.25;;;19.50;99.90;;;;;;5072544;28;20024;-82
2023/08/14 00:23:45;;;;;;;13.20;11.52;;;19.50;99.90;;;;;;5077882;28;20462;-83
2023/08/14 00:26:12;;;;;;;12.13;10.93;;;19.50;99.90;;;;;;5079056;28;20477;-83
2023/08/14 00:28:38;;;;;;;13.20;11.85;;;19.50;99.90;;;;;;5077922;28;20020;-81
2023/08/14 00:31:04;;;;;;;14.65;11.60;;;19.40;99.90;;;;;;5077582;28;20038;-80
2023/08/14 00:33:29;;;;;;;11.73;10.55;;;19.40;99.90;;;;;;5077915;28;20016;-82
2023/08/14 00:35:55;;;;;;;12.15;10.73;;;19.40;99.90;;;;;;5078968;28;20107;-81
2023/08/14 00:38:20;;;;;;;12.82;11.45;;;19.40;99.90;;;;;;5077776;28;20371;-82
2023/08/14 00:40:46;;;;;;;12.57;11.43;;;19.30;99.90;;;;;;5078782;28;20028;-82
2023/08/14 00:43:12;;;;;;;13.48;11.70;;;19.30;99.90;;;;;;5077766;28;20021;-81
2023/08/14 00:45:38;;;;;;;12.70;11.40;;;19.30;99.90;;;;;;5077765;28;20025;-82
2023/08/14 00:48:04;;;;;;;12.48;11.35;;;19.30;99.90;;;;;;5078891;28;20040;-82
2023/08/14 00:50:30;;;;;;;13.27;11.98;;;19.30;99.90;;;;;;5077550;28;20056;-80
2023/08/14 00:52:59;;;;;;;12.38;11.27;;;19.30;99.90;;;;;;5077347;28;20109;-82
2023/08/14 00:55:26;;;;;;;13.20;11.90;;;19.30;99.90;;;;;;5077694;28;20405;-81
2023/08/14 00:57:52;;;;;;;13.43;11.45;;;19.30;99.90;;;;;;5077286;28;20048;-79
2023/08/14 01:00:18;;;;;;;15.50;11.35;;;19.30;99.90;;;;;;5077256;28;20363;-81
2023/08/14 01:02:46;;;;;;;14.68;12.27;;;19.30;99.90;;;;;;5077456;28;20111;-82
2023/08/14 01:05:12;;;;;;;13.20;11.07;;;19.30;99.90;;;;;;5077452;28;20032;-79
2023/08/14 01:07:38;;;;;;;13.13;11.82;;;19.30;99.90;;;;;;5078599;28;20020;-80
2023/08/14 01:10:06;;;;;;;14.23;11.25;;;19.30;99.90;;;;;;5076887;28;20071;-82
2023/08/14 01:12:56;;;;;;;13.00;11.60;;;19.30;99.90;;;;;;5078458;28;20025;-82
2023/08/14 01:15:46;;;;;;;12.35;11.15;;;19.30;99.90;;;;;;5078479;28;20560;-82
2023/08/14 01:18:17;;;;;;;13.45;12.13;;;19.20;99.90;;;;;;5073319;28;20044;-82
2023/08/14 01:20:52;;;;;;;12.95;10.90;;;19.20;99.90;;;;;;5077667;28;20424;-81
2023/08/14 01:23:29;;;;;;;13.18;11.90;;;19.30;99.90;;;;;;5078433;28;20487;-82
2023/08/14 01:25:55;;;;;;;12.90;10.38;;;19.20;99.90;;;;;;5077526;28;20070;-82
2023/08/14 01:28:21;;;;;;;11.98;10.43;;;19.20;99.90;;;;;;5077191;28;20017;-79
2023/08/14 01:30:46;;;;;;;14.60;10.95;;;19.20;99.90;;;;;;5077264;28;20496;-82
2023/08/14 01:33:12;;;;;;;11.85;10.75;;;19.10;99.90;;;;;;5077111;28;20024;-79
2023/08/14 01:35:54;;;;;;;11.45;9.68;;;19.10;99.90;;;;;;5075295;28;20470;-79
2023/08/14 01:38:38;;;;;;;11.23;10.10;;;19.00;99.90;;;;;;5075359;28;20465;-82
2023/08/14 01:41:28;;;;;;;11.75;9.98;;;19.10;99.90;;;;;;5073899;28;20024;-82
2023/08/14 01:43:58;;;;;;;11.55;9.98;;;19.00;99.90;;;;;;5073623;28;20909;-80
2023/08/14 01:46:25;;;;;;;13.40;10.05;;;18.90;99.90;;;;;;5075213;28;20048;-80
2023/08/14 01:48:52;;;;;;;13.65;9.85;;;18.90;99.90;;;;;;5073731;28;20032;-79
2023/08/14 01:51:19;;;;;;;12.57;10.32;;;18.90;99.90;;;;;;5073970;28;20029;-79
2023/08/14 01:53:47;;;;;;;11.75;9.98;;;18.80;99.90;;;;;;5074825;28;20103;-79
2023/08/14 01:56:12;;;;;;;10.93;9.77;;;18.80;99.90;;;;;;5073835;28;20032;-79
2023/08/14 01:58:38;;;;;;;11.50;10.35;;;18.70;99.90;;;;;;5073342;28;20134;-81
2023/08/14 02:01:04;;;;;;;11.43;9.88;;;18.70;99.90;;;;;;5073607;28;20070;-82
2023/08/14 02:03:30;;;;;;;14.00;9.75;;;18.70;99.90;;;;;;5073403;28;20016;-82
2023/08/14 02:05:56;;;;;;;11.35;9.98;;;18.60;99.90;;;;;;5074798;28;20032;-79
2023/08/14 02:08:21;;;;;;;10.60;9.55;;;18.60;99.90;;;;;;5073203;28;20021;-79
2023/08/14 02:10:47;;;;;;;10.40;9.40;;;18.50;99.90;;;;;;5074777;28;20063;-80
2023/08/14 02:13:13;;;;;;;11.05;9.60;;;18.50;99.90;;;;;;5073500;28;20111;-80
2023/08/14 02:15:38;;;;;;;11.45;9.32;;;18.40;99.90;;;;;;5072821;28;20075;-82
2023/08/14 02:18:04;;;;;;;11.90;10.10;;;18.40;99.90;;;;;;5073211;28;20453;-82
2023/08/14 02:20:30;;;;;;;11.23;9.98;;;18.40;99.90;;;;;;5073370;28;20108;-80
2023/08/14 02:22:55;;;;;;;10.60;9.52;;;18.30;99.90;;;;;;5074214;28;20021;-82
2023/08/14 02:25:21;;;;;;;10.57;9.63;;;18.30;99.90;;;;;;5073249;28;20059;-80
2023/08/14 02:27:46;;;;;;;10.75;9.65;;;18.30;99.90;;;;;;5072864;28;20025;-79
2023/08/14 02:30:12;;;;;;;16.08;10.93;;;18.20;99.90;;;;;;5073020;28;20032;-82
2023/08/14 02:32:38;;;;;;;10.95;9.80;;;18.10;99.90;;;;;;5072893;28;20020;-81
2023/08/14 02:35:04;;;;;;;11.30;10.27;;;18.10;99.90;;;;;;5072973;28;20031;-79
2023/08/14 02:37:29;;;;;;;11.98;10.70;;;18.10;99.90;;;;;;5072843;28;20421;-79
2023/08/14 02:39:55;;;;;;;11.57;10.40;;;18.10;99.90;;;;;;5072818;28;20115;-82
2023/08/14 02:42:21;;;;;;;12.70;9.68;;;18.00;99.90;;;;;;5073673;28;20048;-82
2023/08/14 02:44:46;;;;;;;10.55;9.43;;;18.00;99.90;;;;;;5073654;28;20021;-82
2023/08/14 02:47:13;;;;;;;11.38;10.38;;;18.00;99.90;;;;;;5072101;28;20386;-81
2023/08/14 02:49:38;;;;;;;12.13;10.00;;;18.00;99.90;;;;;;5072317;28;20027;-79
2023/08/14 02:52:04;;;;;;;12.50;11.15;;;17.90;99.90;;;;;;5071882;28;20021;-82
2023/08/14 02:54:30;;;;;;;11.02;9.77;;;17.90;99.90;;;;;;5072347;28;20480;-79
2023/08/14 02:56:55;;;;;;;10.80;9.70;;;17.90;99.90;;;;;;5072236;28;20458;-81
2023/08/14 02:59:22;;;;;;;11.90;9.43;;;17.90;99.90;;;;;;5073574;28;20021;-81
2023/08/14 03:01:47;;;;;;;11.10;9.95;;;17.90;99.90;;;;;;5073537;28;20044;-82
2023/08/14 03:04:14;;;;;;;11.05;9.68;;;17.90;99.90;;;;;;5073726;28;20107;-82
2023/08/14 03:06:40;;;;;;;11.25;8.80;;;17.80;99.90;;;;;;5072294;28;20039;-81
2023/08/14 03:09:06;;;;;;;13.43;10.13;;;17.80;99.90;;;;;;5073259;28;20028;-82
2023/08/14 03:11:31;;;;;;;12.68;10.13;;;17.80;99.90;;;;;;5073172;28;20109;-79
2023/08/14 03:13:57;;;;;;;11.63;9.18;;;17.70;99.90;;;;;;5073279;28;20048;-79
2023/08/14 03:16:22;;;;;;;12.25;10.00;;;17.70;99.90;;;;;;5073642;28;20033;-82
2023/08/14 03:18:48;;;;;;;11.00;8.88;;;17.70;99.90;;;;;;5072330;28;20447;-79
2023/08/14 03:21:14;;;;;;;10.88;9.63;;;17.70;99.90;;;;;;5073202;28;20436;-79
2023/08/14 03:23:39;;;;;;;10.27;9.25;;;17.60;99.90;;;;;;5071982;28;20104;-79
2023/08/14 03:26:05;;;;;;;12.73;9.43;;;17.60;99.90;;;;;;5071950;28;20023;-79
2023/08/14 03:28:31;;;;;;;11.85;9.75;;;17.60;99.90;;;;;;5072969;28;20029;-82
2023/08/14 03:30:57;;;;;;;10.93;9.70;;;17.60;99.90;;;;;;5071854;28;20040;-82
2023/08/14 03:33:22;;;;;;;12.35;9.85;;;17.60;99.90;;;;;;5071634;28;20024;-82
2023/08/14 03:35:52;;;;;;;11.57;10.35;;;17.60;99.90;;;;;;5072575;28;20032;-82
2023/08/14 03:38:18;;;;;;;12.48;11.10;;;17.60;99.90;;;;;;5072840;28;20016;-82
2023/08/14 03:40:44;;;;;;;11.48;9.02;;;17.60;99.90;;;;;;5073071;28;20512;-82
2023/08/14 03:43:09;;;;;;;10.88;9.77;;;17.60;99.90;;;;;;5072855;28;20055;-82
2023/08/14 03:45:35;;;;;;;8.75;7.97;;;17.60;99.90;;;;;;5072987;28;20017;-82
2023/08/14 03:48:02;;;;;;;8.43;7.72;;;17.60;99.90;;;;;;5071436;28;20492;-79
2023/08/14 03:50:27;;;;;;;8.38;7.43;;;17.60;99.90;;;;;;5072796;28;20056;-80
2023/08/14 03:52:53;;;;;;;8.80;7.57;;;17.60;99.90;;;;;;5077545;28;20481;-80
2023/08/14 03:55:18;;;;;;;8.65;7.85;;;17.60;99.90;;;;;;5071645;28;20016;-80
2023/08/14 03:57:44;;;;;;;9.35;7.85;;;17.60;99.90;;;;;;5070977;28;20113;-80
2023/08/14 04:00:10;;;;;;;8.50;7.75;;;17.60;99.90;;;;;;5071479;28;20474;-82
2023/08/14 04:02:36;;;;;;;9.98;9.07;;;17.60;99.90;;;;;;5071512;28;20027;-83
2023/08/14 04:05:01;;;;;;;12.32;10.18;;;17.60;99.90;;;;;;5072502;28;20016;-81
2023/08/14 04:07:27;;;;;;;9.98;8.38;;;17.70;99.90;;;;;;5071119;28;20112;-84
2023/08/14 04:09:53;;;;;;;8.68;7.93;;;17.80;99.90;;;;;;5058042;28;20037;-83
2023/08/14 04:12:19;;;;;;;11.00;8.45;;;17.90;99.90;;;;;;5071192;28;20514;-80
2023/08/14 04:14:45;;;;;;;11.18;8.38;;;17.90;99.90;;;;;;5072626;28;20139;-82
2023/08/14 04:17:11;;;;;;;11.05;9.68;;;17.90;99.90;;;;;;5071213;28;20116;-83
2023/08/14 04:19:36;;;;;;;12.65;10.30;;;18.00;99.90;;;;;;5072439;28;20023;-80
2023/08/14 04:22:02;;;;;;;11.60;9.70;;;18.10;99.90;;;;;;5071894;28;20016;-81
2023/08/14 04:24:28;;;;;;;13.85;9.93;;;18.20;99.90;;;;;;5071204;28;20028;-83
2023/08/14 04:26:53;;;;;;;14.02;10.18;;;18.30;99.90;;;;;;5072360;28;20093;-81
2023/08/14 04:29:19;;;;;;;10.15;9.13;;;18.40;99.90;;;;;;5071161;28;20496;-83
2023/08/14 04:31:45;;;;;;;9.45;8.45;;;18.40;99.90;;;;;;5072155;28;20181;-82
2023/08/14 04:34:10;;;;;;;9.13;7.55;;;18.40;99.90;;;;;;5071277;28;20029;-80
2023/08/14 04:36:36;;;;;;;10.90;7.70;;;18.40;99.90;;;;;;5070917;28;20012;-78
2023/08/14 04:39:04;;;;;;;8.13;7.32;;;18.40;99.90;;;;;;5072345;28;20020;-81
2023/08/14 04:41:30;;;;;;;8.77;7.95;;;18.40;99.90;;;;;;5079945;28;20055;-78
2023/08/14 04:43:56;;;;;;;8.52;7.68;;;18.40;99.90;;;;;;5071327;28;20051;-78
2023/08/14 04:46:32;;;;;;;8.38;7.53;;;18.40;99.90;;;;;;5071413;28;20017;-82
2023/08/14 04:48:59;;;;;;;10.00;8.70;;;18.30;99.90;;;;;;5070881;28;20031;-82
2023/08/14 04:51:25;;;;;;;11.23;9.05;;;18.30;99.90;;;;;;5071254;28;20469;-82
2023/08/14 04:53:51;;;;;;;10.00;9.02;;;18.20;99.90;;;;;;5072188;28;20048;-79
2023/08/14 04:56:16;;;;;;;9.88;9.07;;;18.20;99.90;;;;;;5071265;28;20020;-79
2023/08/14 04:58:43;;;;;;;11.85;9.13;;;18.30;99.90;;;;;;5072213;28;20028;-81
2023/08/14 05:01:09;;;;;;;10.10;9.13;;;18.30;99.90;;;;;;5070866;28;20025;-79
2023/08/14 05:03:34;;;;;;;10.35;9.43;;;18.30;99.90;;;;;;5072217;28;20078;-82
2023/08/14 05:06:00;;;;;;;11.40;10.20;;;18.40;99.90;;;;;;5072095;28;20029;-80
2023/08/14 05:08:25;;;;;;;10.45;9.38;;;18.40;99.90;;;;;;5072399;28;20016;-82
2023/08/14 05:10:52;;;;;;;12.45;10.45;;;18.40;99.90;;;;;;5074336;28;20033;-80
2023/08/14 05:13:18;;;;;;;12.90;10.00;;;18.50;99.90;;;;;;5074566;28;20020;-82
2023/08/14 05:15:46;;;;;;;11.00;9.90;;;18.70;99.90;;;;;;5075500;28;20056;-80
2023/08/14 05:18:12;;;;;;;10.45;9.38;;;18.80;99.90;;;;;;5075764;28;20568;-79
2023/08/14 05:20:38;;;;;;;10.50;9.23;;;18.90;99.90;;;;;;5074060;28;20107;-79
2023/08/14 05:23:04;;;;;;;10.98;9.93;;;19.00;99.90;;;;;;5075677;28;20029;-83
2023/08/14 05:25:29;;;;;;;10.40;9.25;;;19.10;99.90;;;;;;5073930;28;20036;-79
2023/08/14 05:27:55;;;;;;;10.35;9.43;;;19.20;99.90;;;;;;5074008;28;20029;-79
2023/08/14 05:30:21;;;;;;;11.98;9.18;;;19.30;99.90;;;;;;5075515;28;20424;-82
2023/08/14 05:32:47;;;;;;;10.60;9.57;;;19.40;99.90;;;;;;5074953;28;20032;-84
2023/08/14 05:35:13;;;;;;;9.25;8.35;;;19.40;99.90;;;;;;5073377;28;20025;-83
2023/08/14 05:37:39;;;;;;;16.23;10.00;;;19.50;99.90;;;;;;5074096;28;20071;-79
2023/08/14 05:40:06;;;;;;;11.32;10.32;;;19.60;99.90;;;;;;5074722;28;20386;-80
2023/08/14 05:42:32;;;;;;;13.23;10.40;;;19.70;99.90;;;;;;5073772;28;20024;-80
2023/08/14 05:44:57;;;;;;;14.20;11.57;;;19.90;99.90;;;;;;5075294;28;20094;-82
2023/08/14 05:47:24;;;;;;;11.82;10.52;;;20.10;99.90;;;;;;5077408;28;20016;-79
2023/08/14 05:49:49;;;;;;;11.52;10.38;;;20.30;99.90;;;;;;5074815;28;20064;-83
2023/08/14 05:52:15;;;;;;;16.92;9.93;;;20.60;99.90;;;;;;5073942;28;20486;-79
2023/08/14 05:54:40;;;;;;;11.73;9.40;;;20.80;99.90;;;;;;5075228;28;20029;-79
2023/08/14 05:57:06;;;;;;;10.93;8.35;;;21.00;99.90;;;;;;5075079;28;20024;-81
2023/08/14 05:59:32;;;;;;;9.60;8.70;;;21.20;99.90;;;;;;5074086;28;20029;-83
2023/08/14 06:01:58;;;;;;;9.32;8.43;;;21.40;99.90;;;;;;5073625;28;20029;-83
2023/08/14 06:04:24;;;;;;;9.38;7.93;;;21.60;99.90;;;;;;5073202;28;20029;-83
2023/08/14 06:06:50;;;;;;;8.73;7.93;;;21.80;99.90;;;;;;5080185;28;20025;-83
2023/08/14 06:09:17;;;;;;;8.50;7.65;;;22.10;99.90;;;;;;5072051;28;20031;-83
2023/08/14 06:11:43;;;;;;;9.40;7.45;;;22.30;99.90;;;;;;5073215;28;20028;-83
2023/08/14 06:14:08;;;;;;;9.63;8.68;;;22.50;99.90;;;;;;5077447;28;20379;-83
2023/08/14 06:16:34;;;;;;;11.93;9.10;;;22.60;99.90;;;;;;5073972;28;20023;-83
2023/08/14 06:19:00;;;;;;;10.90;8.18;;;22.70;99.90;;;;;;5072905;28;20174;-83
2023/08/14 06:21:25;;;;;;;10.90;7.57;;;22.80;99.90;;;;;;5071011;28;20025;-84
2023/08/14 06:23:51;;;;;;;7.30;6.68;;;22.90;99.90;;;;;;5073244;28;20452;-84
2023/08/14 06:26:17;;;;;;;9.32;7.90;;;23.10;99.90;;;;;;5073991;28;20028;-84
2023/08/14 06:28:42;;;;;;;12.15;7.75;;;23.30;99.90;;;;;;5072844;28;20032;-84
2023/08/14 06:31:09;;;;;;;8.73;7.82;;;23.40;99.70;;;;;;5071994;28;20410;-84
2023/08/14 06:33:34;;;;;;;9.15;7.55;;;23.60;95.10;;;;;;5071604;28;20020;-85
2023/08/14 06:36:00;;;;;;;8.52;6.95;;;23.70;95.10;;;;;;5072063;28;20229;-85
2023/08/14 06:38:26;;;;;;;7.78;7.00;;;24.00;92.90;;;;;;5075737;28;20025;-85
2023/08/14 06:40:51;;;;;;;9.60;7.30;;;24.10;92.90;;;;;;5073422;28;20078;-85
2023/08/14 06:43:18;;;;;;;8.18;7.30;;;24.30;94.00;;;;;;5071171;28;20465;-86
2023/08/14 06:45:45;;;;;;;6.53;5.95;;;24.50;91.90;;;;;;5071859;28;20050;-86
2023/08/14 06:48:11;;;;;;;7.25;6.40;;;24.70;88.60;;;;;;5072072;28;20470;-86
2023/08/14 06:50:37;;;;;;;7.57;5.55;;;24.80;84.70;;;;;;5073168;28;20116;-85
2023/08/14 06:53:02;;;;;;;6.03;5.20;;;25.00;83.30;;;;;;5071858;28;20500;-85
2023/08/14 06:55:28;;;;;;;5.30;4.85;;;25.00;82.60;;;;;;5071479;28;20115;-86
2023/08/14 06:57:53;;;;;;;6.15;5.00;;;25.20;78.00;;;;;;5068739;28;20032;-85
2023/08/14 07:00:19;;;;;;;5.18;4.78;;;25.30;77.40;;;;;;5071888;28;20021;-85
2023/08/14 07:02:47;;;;;;;5.03;4.53;;;25.50;75.30;;;;;;5073128;28;20044;-84
2023/08/14 07:05:12;;;;;;;4.93;4.53;;;25.80;71.00;;;;;;5072061;28;20031;-84
2023/08/14 07:07:38;;;;;;;6.65;4.90;;;26.00;71.00;;;;;;5072753;28;20020;-85
2023/08/14 07:10:05;;;;;;;5.03;4.57;;;26.20;68.40;;;;;;5072883;28;20029;-85
2023/08/14 07:12:30;;;;;;;5.03;4.43;;;26.40;66.90;;;;;;5071081;28;20388;-85
2023/08/14 07:14:56;;;;;;;5.43;4.90;;;26.60;69.30;;;;;;5070261;28;20049;-85
2023/08/14 07:17:22;;;;;;;5.15;4.28;;;26.60;67.50;;;;;;5071983;28;20032;-85
2023/08/14 07:19:47;;;;;;;6.57;4.32;;;26.60;66.30;;;;;;5070877;28;20111;-85
2023/08/14 07:22:13;;;;;;;5.28;4.60;;;26.50;64.90;;;;;;5070947;28;20028;-85
2023/08/14 07:24:38;;;;;;;5.40;4.85;;;26.50;63.80;;;;;;5071234;28;20012;-84
2023/08/14 07:27:04;;;;;;;4.97;4.57;;;26.70;66.30;;;;;;5072081;28;20017;-84
2023/08/14 07:29:30;;;;;;;5.13;4.72;;;26.70;64.80;;;;;;5071069;28;20482;-84
2023/08/14 07:31:55;;;;;;;4.45;4.15;;;26.70;65.00;;;;;;5071664;28;20393;-84
2023/08/14 07:34:21;;;;;;;4.90;4.10;;;26.60;65.20;;;;;;5070260;28;20024;-84
2023/08/14 07:36:46;;;;;;;4.93;4.32;;;26.50;66.00;;;;;;5072059;28;20375;-84
2023/08/14 07:39:12;;;;;;;4.88;4.57;;;26.50;67.00;;;;;;5072705;28;20036;-84
2023/08/14 07:41:37;;;;;;;5.38;4.97;;;26.40;67.10;;;;;;5072519;28;20104;-84
2023/08/14 07:44:03;;;;;;;5.43;4.93;;;26.30;65.80;;;;;;5070978;28;20022;-85
2023/08/14 07:46:29;;;;;;;5.28;4.88;;;26.20;68.70;;;;;;5072574;28;20032;-84
2023/08/14 07:48:55;;;;;;;5.13;4.63;;;26.10;67.80;;;;;;5071632;28;20111;-83
2023/08/14 07:51:20;;;;;;;5.63;5.05;;;26.00;68.00;;;;;;5079872;28;20124;-80
2023/08/14 07:53:46;;;;;;;5.65;5.10;;;25.90;70.60;;;;;;5072311;28;20074;-80
2023/08/14 07:56:12;;;;;;;5.28;4.75;;;25.90;72.10;;;;;;5070359;28;20016;-84
2023/08/14 07:58:39;;;;;;;6.05;5.55;;;25.90;73.50;;;;;;5070624;28;20021;-85
2023/08/14 08:01:05;;;;;;;5.85;4.68;;;25.90;73.40;;;;;;5071186;28;20448;-84
2023/08/14 08:03:31;;;;;;;5.40;5.00;;;25.80;72.90;;;;;;5080783;28;20115;-84
2023/08/14 08:05:56;;;;;;;5.50;5.00;;;25.70;73.40;;;;;;5071763;28;20063;-83
2023/08/14 08:08:22;;;;;;;5.82;5.25;;;25.70;75.00;;;;;;5072420;28;20017;-79
2023/08/14 08:11:13;;;;;;;5.75;5.18;;;25.70;74.20;;;;;;5070755;28;20051;-84
2023/08/14 08:13:39;;;;;;;5.38;4.88;;;25.70;74.30;;;;;;5071242;28;20017;-81
2023/08/14 08:16:04;;;;;;;4.60;4.30;;;25.60;71.30;;;;;;5070984;28;20024;-84
2023/08/14 08:18:30;;;;;;;5.32;4.05;;;25.70;72.40;;;;;;5071420;28;20025;-85
2023/08/14 08:20:55;;;;;;;5.20;4.70;;;25.90;74.00;;;;;;5072216;28;20029;-81
2023/08/14 08:23:21;;;;;;;5.03;4.20;;;26.00;75.30;;;;;;5070865;28;20401;-85
2023/08/14 08:25:47;;;;;;;6.57;4.50;;;26.00;72.70;;;;;;5070935;28;20086;-81
2023/08/14 08:28:12;;;;;;;5.20;4.70;;;26.20;71.40;;;;;;5070244;28;20056;-81
2023/08/14 08:30:38;;;;;;;5.95;4.18;;;26.40;68.50;;;;;;5071146;28;20060;-81
2023/08/14 08:33:04;;;;;;;4.35;3.50;;;26.70;66.40;;;;;;5070630;28;20021;-81
2023/08/14 08:35:29;;;;;;;5.00;4.50;;;26.90;65.90;;;;;;5070369;28;20016;-81
2023/08/14 08:37:55;;;;;;;9.13;5.03;;;27.00;66.70;;;;;;5071810;28;20111;-82
2023/08/14 08:40:22;;;;;;;5.60;4.97;;;27.20;66.00;;;;;;5070445;28;20029;-82
2023/08/14 08:42:48;;;;;;;4.53;4.22;;;27.30;63.50;;;;;;5071759;28;20023;-81
2023/08/14 08:45:18;;;;;;;4.50;4.10;;;27.50;62.80;;;;;;5074702;28;20020;-81
2023/08/14 08:47:47;;;;;;;4.72;4.28;;;27.50;61.70;;;;;;5073507;28;20032;-82
2023/08/14 08:50:13;;;;;;;6.95;4.20;;;27.70;61.00;;;;;;5064069;28;20041;-86
2023/08/14 08:52:39;;;;;;;4.30;3.90;;;27.70;58.30;;;;;;5074723;28;20381;-81
2023/08/14 08:55:07;;;;;;;5.03;3.75;;;27.80;59.00;;;;;;5073727;28;20035;-78
2023/08/14 08:57:35;;;;;;;4.53;3.30;;;28.10;60.30;;;;;;5073596;28;20028;-79
2023/08/14 09:00:01;;;;;;;7.03;3.50;;;28.10;58.60;;;;;;5073490;28;20362;-79
2023/08/14 09:02:27;;;;;;;6.07;3.70;;;28.30;56.60;;;;;;5072536;28;20031;-79
2023/08/14 09:04:53;;;;;;;5.53;4.65;;;28.40;56.70;;;;;;5075430;28;20028;-81
2023/08/14 09:07:18;;;;;;;4.75;3.92;;;28.50;56.40;;;;;;5075694;28;20017;-79
2023/08/14 09:09:44;;;;;;;4.95;4.43;;;28.40;54.70;;;;;;5073706;28;20029;-80
2023/08/14 09:12:10;;;;;;;4.63;4.10;;;28.50;56.30;;;;;;5073667;28;20428;-80
2023/08/14 09:14:41;;;;;;;6.93;4.18;;;28.60;56.10;;;;;;5071618;28;20076;-80
2023/08/14 09:17:08;;;;;;;6.17;4.60;;;28.80;55.40;;;;;;5073575;28;20023;-81
2023/08/14 09:19:33;;;;;;;8.57;4.75;;;28.90;55.50;;;;;;5071842;28;20274;-81
2023/08/14 09:21:59;;;;;;;4.15;3.20;;;28.90;56.00;;;;;;5069740;28;20025;-80
2023/08/14 09:24:25;;;;;;;4.03;3.60;;;29.00;54.60;;;;;;5073466;28;20426;-80
2023/08/14 09:26:50;;;;;;;5.85;3.80;;;29.10;55.10;;;;;;5072629;28;20071;-80
2023/08/14 09:29:16;;;;;;;4.63;4.15;;;29.30;55.90;;;;;;5073362;28;20048;-80
2023/08/14 09:31:44;;;;;;;4.22;3.40;;;29.20;53.40;;;;;;5074998;28;20032;-79
2023/08/14 09:34:16;;;;;;;3.80;3.35;;;29.30;51.40;;;;;;5073786;28;20466;-80
2023/08/14 09:36:41;;;;;;;2.92;2.72;;;29.50;51.40;;;;;;5075162;28;20111;-80
2023/08/14 09:39:08;;;;;;;4.22;2.30;;;29.60;50.00;;;;;;5075249;28;20060;-80
2023/08/14 09:41:35;;;;;;;2.97;2.50;;;29.50;47.90;;;;;;5073206;28;20020;-81
2023/08/14 09:44:01;;;;;;;3.72;2.60;;;29.60;48.10;;;;;;5068330;28;20044;-80
2023/08/14 09:46:28;;;;;;;3.28;2.90;;;29.70;48.70;;;;;;5073815;28;20103;-85
2023/08/14 09:48:54;;;;;;;4.63;2.72;;;29.90;48.80;;;;;;5073366;28;20028;-80
2023/08/14 09:51:19;;;;;;;3.05;2.78;;;29.90;49.00;;;;;;5074468;28;20029;-81
2023/08/14 09:53:50;;;;;;;5.18;2.70;;;30.00;49.10;;;;;;5080195;28;20070;-80
2023/08/14 09:56:17;;;;;;;4.35;2.95;;;30.00;47.70;;;;;;5073996;28;20021;-80
2023/08/14 09:58:43;;;;;;;3.22;2.92;;;30.10;46.80;;;;;;5074451;28;20500;-81
2023/08/14 10:01:12;;;;;;;3.80;3.30;;;30.10;46.40;;;;;;5073202;28;20113;-81
2023/08/14 10:03:40;;;;;;;4.97;3.35;;;30.10;49.20;;;;;;5074563;28;20099;-81
2023/08/14 10:06:07;;;;;;;3.15;2.95;;;30.20;49.50;;;;;;5069719;28;20025;-84
2023/08/14 10:08:37;;;;;;;3.53;3.22;;;30.20;48.80;;;;;;5073486;28;20028;-85
2023/08/14 10:11:03;;;;;;;3.65;2.65;;;30.20;50.60;;;;;;5072366;28;20450;-86
2023/08/14 10:13:31;;;;;;;6.32;3.38;;;30.30;50.30;;;;;;5072646;28;20392;-85
2023/08/14 10:16:00;;;;;;;3.25;2.97;;;30.40;48.70;;;;;;5071377;28;20048;-85
2023/08/14 10:18:29;;;;;;;3.10;2.80;;;30.40;48.50;;;;;;5065429;28;20500;-81
2023/08/14 10:20:59;;;;;;;6.00;3.70;;;30.40;50.10;;;;;;5073647;28;20453;-81
2023/08/14 10:23:25;;;;;;;2.85;2.60;;;30.60;51.10;;;;;;5072631;28;20055;-81
2023/08/14 10:25:52;;;;;;;5.28;2.85;;;30.70;51.60;;;;;;5072672;28;20032;-81
2023/08/14 10:28:19;;;;;;;3.65;2.85;;;30.70;51.10;;;;;;5071603;28;20492;-82
2023/08/14 10:30:46;;;;;;;3.78;3.33;;;30.70;50.20;;;;;;5071250;28;20059;-80
2023/08/14 10:33:13;;;;;;;3.78;3.38;;;30.50;51.00;;;;;;5073429;28;20016;-79
2023/08/14 10:35:53;;;;;;;3.80;3.50;;;30.50;51.80;;;;;;5073473;28;20697;-80
2023/08/14 10:38:20;;;;;;;3.05;2.85;;;30.50;51.40;;;;;;5068974;28;20450;-81
2023/08/14 10:41:04;;;;;;;3.50;3.00;;;30.60;50.90;;;;;;5072399;28;20048;-81
2023/08/14 10:43:30;;;;;;;4.93;3.50;;;30.70;52.60;;;;;;5069222;28;20017;-81
2023/08/14 10:45:55;;;;;;;4.20;3.80;;;30.80;52.90;;;;;;5068347;28;20031;-81
2023/08/14 10:48:21;;;;;;;3.70;3.40;;;30.80;52.50;;;;;;5071871;28;20036;-80
2023/08/14 10:50:49;;;;;;;4.25;3.75;;;30.80;52.00;;;;;;5072645;28;20774;-80
2023/08/14 10:53:15;;;;;;;4.78;3.50;;;30.90;52.10;;;;;;5072785;28;20029;-80
2023/08/14 10:55:46;;;;;;;3.80;3.50;;;30.90;53.50;;;;;;5071286;28;20028;-80
2023/08/14 10:58:35;;;;;;;3.85;3.55;;;30.90;52.50;;;;;;5070783;28;20023;-80
2023/08/14 11:01:04;;;;;;;4.63;3.47;;;30.80;50.80;;;;;;5072021;28;20036;-81
2023/08/14 11:03:33;;;;;;;5.07;3.08;;;30.90;50.50;;;;;;5070140;28;20020;-81
2023/08/14 11:05:59;;;;;;;5.15;3.65;;;30.70;50.80;;;;;;5069740;28;20050;-82
2023/08/14 11:08:30;;;;;;;4.35;3.50;;;30.50;50.30;;;;;;5070958;28;20106;-81
2023/08/14 11:10:57;;;;;;;3.38;3.00;;;30.40;49.80;;;;;;5070016;28;20378;-81
2023/08/14 11:13:22;;;;;;;5.45;3.50;;;30.60;49.30;;;;;;5071543;28;20044;-82
2023/08/14 11:15:48;;;;;;;4.32;3.92;;;30.60;50.60;;;;;;5070938;28;20110;-80
2023/08/14 11:18:15;;;;;;;3.28;2.83;;;30.70;50.10;;;;;;5072587;28;20032;-80
2023/08/14 11:20:42;;;;;;;3.67;3.38;;;30.70;48.20;;;;;;5071650;28;20024;-80
2023/08/14 11:23:09;;;;;;;4.72;3.00;;;30.70;47.50;;;;;;5072105;28;20478;-80
2023/08/14 11:25:36;;;;;;;2.97;2.67;;;30.90;48.60;;;;;;5072447;28;20025;-78
2023/08/14 11:28:02;;;;;;;3.22;2.63;;;31.00;48.70;;;;;;5072443;28;20031;-77
2023/08/14 11:30:33;;;;;;;3.38;2.83;;;31.10;46.70;;;;;;5072057;28;21409;-77
2023/08/14 11:32:58;;;;;;;3.03;2.78;;;31.10;47.50;;;;;;5068711;28;20028;-76
2023/08/14 11:35:28;;;;;;;2.97;2.78;;;31.30;48.30;;;;;;5072437;28;20028;-77
2023/08/14 11:37:55;;;;;;;3.00;2.80;;;31.40;47.40;;;;;;5071782;28;20056;-78
2023/08/14 11:40:20;;;;;;;2.90;2.65;;;31.40;47.90;;;;;;5072266;28;20028;-77
2023/08/14 11:42:46;;;;;;;3.15;2.70;;;31.40;47.60;;;;;;5070709;28;20074;-79
2023/08/14 11:45:12;;;;;;;2.53;2.40;;;31.50;44.70;;;;;;5067689;28;20355;-77
2023/08/14 11:47:46;;;;;;;2.83;2.63;;;31.50;43.40;;;;;;5072086;28;20046;-77
2023/08/14 11:50:13;;;;;;;4.28;2.45;;;31.60;44.20;;;;;;5069487;28;20029;-77
2023/08/14 11:52:39;;;;;;;3.63;3.03;;;31.60;43.70;;;;;;5071461;28;20024;-77
2023/08/14 11:55:06;;;;;;;3.83;2.58;;;31.60;45.90;;;;;;5071584;28;20031;-77
2023/08/14 11:57:32;;;;;;;2.72;2.53;;;31.60;45.60;;;;;;5070427;28;20066;-78
2023/08/14 12:00:00;;;;;;;3.17;2.22;;;31.60;46.40;;;;;;5070978;28;20777;-78
2023/08/14 12:02:28;;;;;;;6.50;3.13;;;31.70;46.00;;;;;;5071755;28;20529;-77
2023/08/14 12:04:59;;;;;;;3.53;2.70;;;31.70;44.00;;;;;;5071441;28;20016;-78
2023/08/14 12:07:26;;;;;;;2.55;2.35;;;31.70;42.90;;;;;;5068417;28;20486;-78
2023/08/14 12:09:56;;;;;;;2.80;2.47;;;31.70;41.20;;;;;;5069651;28;20086;-78
2023/08/14 12:12:23;;;;;;;3.10;2.70;;;31.80;42.40;;;;;;5071790;28;20024;-77
2023/08/14 12:14:50;;;;;;;2.67;2.50;;;31.80;41.50;;;;;;5069261;28;20056;-78
2023/08/14 12:17:18;;;;;;;3.55;3.05;;;31.80;42.00;;;;;;5060547;28;20025;-77
2023/08/14 12:19:50;;;;;;;2.85;2.65;;;31.90;42.10;;;;;;5070969;28;20028;-78
2023/08/14 12:22:20;;;;;;;4.53;2.40;;;31.80;43.00;;;;;;5069927;28;20520;-79
2023/08/14 12:24:46;;;;;;;4.65;2.63;;;31.80;42.90;;;;;;5070447;28;20024;-80
2023/08/14 12:27:27;;;;;;;3.03;1.90;;;31.80;41.40;;;;;;5066878;28;20154;-79
2023/08/14 12:29:54;;;;;;;2.90;2.28;;;31.80;42.60;;;;;;5070114;28;20036;-83
2023/08/14 12:32:21;;;;;;;3.90;2.40;;;31.80;41.80;;;;;;5077512;28;20040;-77
2023/08/14 12:34:47;;;;;;;3.60;2.20;;;31.80;41.70;;;;;;5070280;28;20055;-81
2023/08/14 12:37:16;;;;;;;3.85;2.28;;;31.90;41.70;;;;;;5070241;28;20032;-82
2023/08/14 12:39:50;;;;;;;1.92;1.83;;;31.90;40.50;;;;;;5069269;28;20028;-82